createdAt,value
2017-12-03T00:01:35.575Z,102184.61
2017-12-03T00:04:03.285Z,102185.27
2017-12-03T00:06:30.975Z,102185.13
2017-12-03T00:08:58.711Z,102175.11
2017-12-03T00:11:26.431Z,102172.27
2017-12-03T00:13:54.184Z,102165.73
2017-12-03T00:16:21.882Z,102157.19
2017-12-03T00:18:49.616Z,102152.78
2017-12-03T00:21:17.291Z,102156.16
2017-12-03T00:23:45.034Z,102151.41
2017-12-03T00:26:12.713Z,102148.66
2017-12-03T00:28:40.453Z,102145.92
2017-12-03T00:31:08.183Z,102141.58
2017-12-03T00:33:35.932Z,102143.17
2017-12-03T00:36:03.617Z,102139.23
2017-12-03T00:38:31.351Z,102131.20
2017-12-03T00:40:59.061Z,102130.56
2017-12-03T00:43:26.725Z,102125.19
2017-12-03T00:45:54.414Z,102131.80
2017-12-03T00:48:22.166Z,102123.58
2017-12-03T00:50:49.855Z,102127.16
2017-12-03T00:53:17.596Z,102122.10
2017-12-03T00:55:45.282Z,102122.71
2017-12-03T00:58:13.008Z,102116.38
2017-12-03T01:00:40.630Z,102116.59
2017-12-03T01:03:08.378Z,102114.89
2017-12-03T01:05:36.063Z,102114.65
2017-12-03T01:08:03.796Z,102119.09
2017-12-03T01:10:31.423Z,102118.84
2017-12-03T01:12:59.090Z,102117.66
2017-12-03T01:15:26.796Z,102116.61
2017-12-03T01:17:54.562Z,102112.78
2017-12-03T01:20:22.288Z,102116.09
2017-12-03T01:22:50.095Z,102113.77
2017-12-03T01:25:17.793Z,102104.87
2017-12-03T01:27:45.528Z,102103.08
2017-12-03T01:30:13.262Z,102111.83
2017-12-03T01:32:41.012Z,102107.86
2017-12-03T01:35:08.695Z,102107.62
2017-12-03T01:37:36.429Z,102101.18
2017-12-03T01:40:04.124Z,102094.74
2017-12-03T01:42:31.809Z,102098.44
2017-12-03T01:44:59.445Z,102087.56
2017-12-03T01:47:27.119Z,102084.29
2017-12-03T01:49:54.812Z,102084.81
2017-12-03T01:52:22.547Z,102082.20
2017-12-03T01:54:50.260Z,102077.87
2017-12-03T01:57:17.966Z,102084.63
2017-12-03T01:59:45.694Z,102077.77
2017-12-03T02:02:14.017Z,102076.50
2017-12-03T02:04:41.752Z,102068.59
2017-12-03T02:07:09.460Z,102067.74
2017-12-03T02:09:37.184Z,102065.66
2017-12-03T02:12:04.883Z,102056.05
2017-12-03T02:14:32.629Z,102052.36
2017-12-03T02:17:00.324Z,102052.36
2017-12-03T02:19:28.140Z,102039.59
2017-12-03T02:21:55.857Z,102039.87
2017-12-03T02:24:23.597Z,102042.76
2017-12-03T02:26:51.272Z,102027.66
2017-12-03T02:29:19.017Z,102030.41
2017-12-03T02:31:46.747Z,102028.05
2017-12-03T02:34:14.491Z,102033.55
2017-12-03T02:36:42.179Z,102025.97
2017-12-03T02:39:09.912Z,102032.52
2017-12-03T02:41:37.593Z,102028.19
2017-12-03T02:44:05.247Z,102029.56
2017-12-03T02:46:32.878Z,102023.33
2017-12-03T02:49:00.595Z,102018.80
2017-12-03T02:51:28.284Z,102011.94
2017-12-03T02:53:56.036Z,102016.19
2017-12-03T02:56:23.720Z,102019.45
2017-12-03T02:58:51.449Z,102005.31
2017-12-03T03:01:19.146Z,102005.31
2017-12-03T03:03:46.888Z,101999.93
2017-12-03T03:06:14.588Z,102001.83
2017-12-03T03:08:42.324Z,101997.11
2017-12-03T03:11:10.014Z,101995.63
2017-12-03T03:13:37.743Z,102000.17
2017-12-03T03:16:05.371Z,101992.47
2017-12-03T03:18:33.168Z,101993.66
2017-12-03T03:21:00.847Z,102000.09
2017-12-03T03:23:28.582Z,101992.09
2017-12-03T03:25:56.271Z,101988.85
2017-12-03T03:28:24.018Z,101983.05
2017-12-03T03:30:51.894Z,101985.37
2017-12-03T03:33:19.629Z,101983.71
2017-12-03T03:35:47.370Z,101983.91
2017-12-03T03:38:15.144Z,101979.62
2017-12-03T03:40:42.845Z,101973.95
2017-12-03T03:43:10.579Z,101973.95
2017-12-03T03:45:38.277Z,101968.14
2017-12-03T03:48:05.981Z,101964.27
2017-12-03T03:50:33.723Z,101963.70
2017-12-03T03:53:01.424Z,101957.27
2017-12-03T03:55:29.200Z,101952.27
2017-12-03T03:57:56.834Z,101954.34
2017-12-03T04:00:24.627Z,101946.22
2017-12-03T04:02:52.337Z,101945.09
2017-12-03T04:05:20.067Z,101942.27
2017-12-03T04:07:47.764Z,101940.80
2017-12-03T04:10:15.438Z,101941.64
2017-12-03T04:12:43.145Z,101937.10
2017-12-03T04:15:10.808Z,101938.81
2017-12-03T04:17:38.434Z,101941.66
2017-12-03T04:20:06.164Z,101941.87
2017-12-03T04:22:33.881Z,101943.66
2017-12-03T04:25:01.627Z,101940.39
2017-12-03T04:27:29.389Z,101937.47
2017-12-03T04:29:57.186Z,101944.43
2017-12-03T04:32:24.883Z,101940.03
2017-12-03T04:34:52.662Z,101935.59
2017-12-03T04:37:20.417Z,101923.36
2017-12-03T04:39:48.170Z,101925.47
2017-12-03T04:42:15.872Z,101926.09
2017-12-03T04:44:43.580Z,101921.56
2017-12-03T04:47:11.324Z,101914.84
2017-12-03T04:49:39.028Z,101912.20
2017-12-03T04:52:06.749Z,101914.84
2017-12-03T04:54:34.485Z,101909.98
2017-12-03T04:57:02.175Z,101902.19
2017-12-03T04:59:29.909Z,101903.14
2017-12-03T05:01:57.626Z,101905.59
2017-12-03T05:04:25.329Z,101908.96
2017-12-03T05:06:53.033Z,101903.80
2017-12-03T05:09:20.776Z,101903.11
2017-12-03T05:11:48.469Z,101894.75
2017-12-03T05:14:16.203Z,101896.02
2017-12-03T05:16:43.908Z,101894.13
2017-12-03T05:19:11.600Z,101897.28
2017-12-03T05:21:39.321Z,101892.22
2017-12-03T05:24:07.081Z,101886.95
2017-12-03T05:26:34.771Z,101885.37
2017-12-03T05:29:02.517Z,101883.78
2017-12-03T05:31:30.268Z,101889.59
2017-12-03T05:33:58.020Z,101885.79
2017-12-03T05:36:25.707Z,101882.83
2017-12-03T05:38:53.452Z,101879.56
2017-12-03T05:41:21.138Z,101881.89
2017-12-03T05:43:48.777Z,101880.30
2017-12-03T05:46:16.468Z,101881.96
2017-12-03T05:48:44.156Z,101887.77
2017-12-03T05:51:11.918Z,101880.91
2017-12-03T05:53:39.628Z,101881.20
2017-12-03T05:56:07.388Z,101880.35
2017-12-03T05:58:35.089Z,101870.02
2017-12-03T06:01:02.836Z,101874.55
2017-12-03T06:03:30.552Z,101862.74
2017-12-03T06:05:58.316Z,101868.22
2017-12-03T06:08:26.048Z,101865.06
2017-12-03T06:10:53.792Z,101862.84
2017-12-03T06:13:21.432Z,101873.58
2017-12-03T06:15:49.106Z,101862.60
2017-12-03T06:18:16.810Z,101863.34
2017-12-03T06:20:44.564Z,101854.59
2017-12-03T06:23:12.221Z,101858.70
2017-12-03T06:25:39.978Z,101852.90
2017-12-03T06:28:07.718Z,101855.64
2017-12-03T06:30:35.516Z,101846.57
2017-12-03T06:33:03.236Z,101853.08
2017-12-03T06:35:30.981Z,101846.65
2017-12-03T06:37:58.700Z,101848.97
2017-12-03T06:40:26.472Z,101836.77
2017-12-03T06:42:54.118Z,101842.01
2017-12-03T06:45:21.868Z,101844.75
2017-12-03T06:47:49.566Z,101849.70
2017-12-03T06:50:17.254Z,101838.31
2017-12-03T06:52:44.957Z,101844.51
2017-12-03T06:55:12.702Z,101840.00
2017-12-03T06:57:40.409Z,101842.19
2017-12-03T07:00:08.156Z,101844.20
2017-12-03T07:02:35.812Z,101840.27
2017-12-03T07:05:03.504Z,101837.80
2017-12-03T07:07:31.136Z,101835.72
2017-12-03T07:09:58.880Z,101836.85
2017-12-03T07:12:26.588Z,101836.64
2017-12-03T07:14:54.356Z,101839.04
2017-12-03T07:17:22.072Z,101832.39
2017-12-03T07:19:49.773Z,101836.16
2017-12-03T07:22:17.580Z,101830.56
2017-12-03T07:24:45.293Z,101827.89
2017-12-03T07:27:13.085Z,101826.84
2017-12-03T07:29:40.804Z,101825.47
2017-12-03T07:32:08.584Z,101821.64
2017-12-03T07:34:36.348Z,101819.92
2017-12-03T07:37:04.126Z,101822.66
2017-12-03T07:39:31.800Z,101811.09
2017-12-03T07:42:00.509Z,101812.64
2017-12-03T07:44:28.204Z,101816.75
2017-12-03T07:46:55.907Z,101814.33
2017-12-03T07:49:23.570Z,101809.44
2017-12-03T07:51:51.382Z,101806.48
2017-12-03T07:54:19.118Z,101808.03
2017-12-03T07:56:46.869Z,101812.99
2017-12-03T07:59:14.518Z,101809.41
2017-12-03T08:01:42.269Z,101811.38
2017-12-03T08:04:09.932Z,101813.17
2017-12-03T08:06:37.624Z,101812.92
2017-12-03T08:09:05.364Z,101811.27
2017-12-03T08:11:33.071Z,101810.64
2017-12-03T08:14:00.709Z,101811.13
2017-12-03T08:16:28.478Z,101802.91
2017-12-03T08:18:56.332Z,101802.76
2017-12-03T08:21:24.045Z,101805.68
2017-12-03T08:23:51.741Z,101807.75
2017-12-03T08:26:20.481Z,101810.71
2017-12-03T08:28:48.165Z,101809.13
2017-12-03T08:31:15.854Z,101799.52
2017-12-03T08:33:43.490Z,101807.05
2017-12-03T08:36:11.197Z,101800.72
2017-12-03T08:38:38.829Z,101800.12
2017-12-03T08:41:06.524Z,101800.79
2017-12-03T08:43:34.148Z,101795.48
2017-12-03T08:46:01.829Z,101793.37
2017-12-03T08:48:29.562Z,101790.77
2017-12-03T08:50:57.315Z,101788.30
2017-12-03T08:53:25.018Z,101793.16
2017-12-03T08:55:52.711Z,101789.91
2017-12-03T08:58:20.464Z,101786.78
2017-12-03T09:00:48.173Z,101788.69
2017-12-03T09:03:15.902Z,101784.14
2017-12-03T09:05:43.618Z,101786.22
2017-12-03T09:08:11.357Z,101786.95
2017-12-03T09:10:39.074Z,101785.13
2017-12-03T09:13:06.783Z,101792.63
2017-12-03T09:15:34.508Z,101785.76
2017-12-03T09:18:02.195Z,101780.23
2017-12-03T09:20:29.924Z,101786.56
2017-12-03T09:22:57.614Z,101779.98
2017-12-03T09:25:25.315Z,101777.97
2017-12-03T09:27:53.143Z,101772.56
2017-12-03T09:30:20.790Z,101782.06
2017-12-03T09:32:48.464Z,101775.73
2017-12-03T09:35:16.189Z,101775.55
2017-12-03T09:37:43.876Z,101771.09
2017-12-03T09:40:11.510Z,101772.10
2017-12-03T09:42:39.185Z,101773.96
2017-12-03T09:45:06.820Z,101768.54
2017-12-03T09:47:34.512Z,101769.88
2017-12-03T09:50:02.209Z,101766.39
2017-12-03T09:52:29.885Z,101762.27
2017-12-03T09:54:57.542Z,101753.82
2017-12-03T09:57:25.315Z,101749.14
2017-12-03T09:59:52.979Z,101752.03
2017-12-03T10:02:20.771Z,101745.70
2017-12-03T10:04:48.490Z,101738.34
2017-12-03T10:07:16.177Z,101736.55
2017-12-03T10:09:43.805Z,101737.50
2017-12-03T10:12:11.476Z,101730.12
2017-12-03T10:14:39.135Z,101733.77
2017-12-03T10:17:06.830Z,101730.41
2017-12-03T10:19:34.581Z,101718.49
2017-12-03T10:22:02.310Z,101717.95
2017-12-03T10:24:29.957Z,101724.59
2017-12-03T10:26:58.781Z,101722.73
2017-12-03T10:29:26.483Z,101717.60
2017-12-03T10:31:54.288Z,101715.98
2017-12-03T10:34:22.047Z,101723.44
2017-12-03T10:36:50.152Z,101715.68
2017-12-03T10:39:19.853Z,101710.50
2017-12-03T10:41:48.001Z,101713.19
2017-12-03T10:44:15.885Z,101718.84
2017-12-03T10:46:43.591Z,101709.95
2017-12-03T10:49:11.318Z,101710.84
2017-12-03T10:51:39.105Z,101708.21
2017-12-03T10:54:06.905Z,101701.06
2017-12-03T10:56:35.038Z,101701.48
2017-12-03T10:59:02.785Z,101700.22
2017-12-03T11:01:30.844Z,101701.23
2017-12-03T11:03:58.703Z,101689.66
2017-12-03T11:06:26.502Z,101690.55
2017-12-03T11:08:54.306Z,101690.66
2017-12-03T11:11:22.056Z,101687.10
2017-12-03T11:13:49.828Z,101680.53
2017-12-03T11:16:17.465Z,101673.42
2017-12-03T11:18:45.245Z,101667.81
2017-12-03T11:21:12.981Z,101666.66
2017-12-03T11:23:40.654Z,101666.62
2017-12-03T11:26:09.274Z,101663.34
2017-12-03T11:28:37.059Z,101657.42
2017-12-03T11:31:06.169Z,101657.17
2017-12-03T11:33:34.789Z,101644.70
2017-12-03T11:36:02.548Z,101652.27
2017-12-03T11:38:31.276Z,101649.61
2017-12-03T11:40:59.159Z,101645.77
2017-12-03T11:43:26.875Z,101640.23
2017-12-03T11:45:55.353Z,101636.95
2017-12-03T11:48:23.124Z,101632.47
2017-12-03T11:50:50.822Z,101630.56
2017-12-03T11:53:19.317Z,101623.61
2017-12-03T11:55:47.871Z,101618.14
2017-12-03T11:58:16.369Z,101627.92
2017-12-03T12:00:44.237Z,101620.70
2017-12-03T12:03:12.049Z,101624.26
2017-12-03T12:05:40.552Z,101619.23
2017-12-03T12:08:08.877Z,101619.77
2017-12-03T12:10:36.677Z,101622.63
2017-12-03T12:13:04.676Z,101623.78
2017-12-03T12:15:32.643Z,101619.55
2017-12-03T12:18:02.064Z,101619.02
2017-12-03T12:20:31.055Z,101626.86
2017-12-03T12:22:59.897Z,101614.78
2017-12-03T12:25:27.703Z,101614.89
2017-12-03T12:27:55.489Z,101610.24
2017-12-03T12:30:23.317Z,101610.83
2017-12-03T12:32:51.079Z,101604.44
2017-12-03T12:35:19.196Z,101603.21
2017-12-03T12:37:47.000Z,101597.35
2017-12-03T12:40:14.726Z,101590.91
2017-12-03T12:42:42.903Z,101596.40
2017-12-03T12:45:10.698Z,101591.35
2017-12-03T12:47:39.055Z,101583.42
2017-12-03T12:50:06.856Z,101580.25
2017-12-03T12:52:35.048Z,101574.23
2017-12-03T12:55:02.763Z,101576.39
2017-12-03T12:57:31.361Z,101580.62
2017-12-03T12:59:59.203Z,101577.98
2017-12-03T13:02:27.215Z,101571.68
2017-12-03T13:04:56.506Z,101581.15
2017-12-03T13:07:24.214Z,101582.95
2017-12-03T13:09:51.991Z,101587.73
2017-12-03T13:12:20.907Z,101586.22
2017-12-03T13:14:49.027Z,101589.70
2017-12-03T13:17:17.068Z,101582.72
2017-12-03T13:19:45.380Z,101586.42
2017-12-03T13:22:13.566Z,101585.16
2017-12-03T13:24:41.442Z,101574.48
2017-12-03T13:27:09.550Z,101578.46
2017-12-03T13:29:38.148Z,101575.07
2017-12-03T13:32:06.648Z,101565.67
2017-12-03T13:34:34.336Z,101574.48
2017-12-03T13:37:02.529Z,101563.88
2017-12-03T13:39:30.255Z,101559.91
2017-12-03T13:41:58.280Z,101559.01
2017-12-03T13:44:26.375Z,101551.88
2017-12-03T13:46:54.063Z,101554.94
2017-12-03T13:49:22.274Z,101556.48
2017-12-03T13:51:49.896Z,101551.66
2017-12-03T13:54:17.947Z,101552.73
2017-12-03T13:56:46.302Z,101552.25
2017-12-03T13:59:14.094Z,101552.78
2017-12-03T14:01:41.843Z,101547.83
2017-12-03T14:04:10.085Z,101553.52
2017-12-03T14:06:37.799Z,101553.26
2017-12-03T14:09:05.589Z,101558.16
2017-12-03T14:11:33.553Z,101553.88
2017-12-03T14:14:01.228Z,101557.33
2017-12-03T14:16:28.936Z,101556.00
2017-12-03T14:18:56.903Z,101554.27
2017-12-03T14:21:24.844Z,101549.50
2017-12-03T14:23:53.151Z,101550.31
2017-12-03T14:26:20.901Z,101549.52
2017-12-03T14:28:49.517Z,101559.98
2017-12-03T14:31:17.319Z,101562.50
2017-12-03T14:33:45.037Z,101563.45
2017-12-03T14:36:13.992Z,101564.45
2017-12-03T14:38:42.174Z,101569.89
2017-12-03T14:41:10.245Z,101560.76
2017-12-03T14:43:38.028Z,101563.14
2017-12-03T14:46:05.896Z,101558.44
2017-12-03T14:48:33.971Z,101559.92
2017-12-03T14:51:01.811Z,101567.89
2017-12-03T14:53:30.001Z,101558.44
2017-12-03T14:55:58.204Z,101554.26
2017-12-03T14:58:27.007Z,101555.96
2017-12-03T15:00:54.745Z,101559.80
2017-12-03T15:03:22.882Z,101569.00
2017-12-03T15:05:50.776Z,101570.12
2017-12-03T15:08:18.505Z,101567.38
2017-12-03T15:10:47.024Z,101563.92
2017-12-03T15:13:14.672Z,101559.02
2017-12-03T15:15:43.201Z,101561.14
2017-12-03T15:18:11.229Z,101562.56
2017-12-03T15:20:39.056Z,101556.84
2017-12-03T15:23:06.894Z,101563.72
2017-12-03T15:25:34.625Z,101559.03
2017-12-03T15:28:02.757Z,101553.00
2017-12-03T15:30:30.525Z,101552.05
2017-12-03T15:32:58.233Z,101553.78
2017-12-03T15:35:26.116Z,101565.58
2017-12-03T15:37:53.837Z,101564.09
2017-12-03T15:40:21.537Z,101564.94
2017-12-03T15:42:49.200Z,101558.12
2017-12-03T15:45:16.928Z,101562.52
2017-12-03T15:47:45.170Z,101571.12
2017-12-03T15:50:12.922Z,101569.48
2017-12-03T15:52:40.634Z,101569.95
2017-12-03T15:55:09.039Z,101566.30
2017-12-03T15:57:43.224Z,101570.89
2017-12-03T16:00:11.447Z,101577.70
2017-12-03T16:02:39.147Z,101574.05
2017-12-03T16:05:06.848Z,101577.43
2017-12-03T16:07:35.541Z,101577.28
2017-12-03T16:10:03.348Z,101578.59
2017-12-03T16:12:31.004Z,101573.45
2017-12-03T16:14:59.033Z,101573.89
2017-12-03T16:17:26.984Z,101586.09
2017-12-03T16:19:55.037Z,101578.72
2017-12-03T16:22:22.965Z,101575.87
2017-12-03T16:24:51.133Z,101575.92
2017-12-03T16:27:18.784Z,101571.56
2017-12-03T16:29:47.004Z,101572.05
2017-12-03T16:32:15.595Z,101571.28
2017-12-03T16:34:43.360Z,101575.15
2017-12-03T16:37:11.108Z,101578.44
2017-12-03T16:39:39.284Z,101583.14
2017-12-03T16:42:07.250Z,101576.50
2017-12-03T16:44:34.944Z,101578.92
2017-12-03T16:47:03.538Z,101584.55
2017-12-03T16:49:31.189Z,101586.41
2017-12-03T16:51:59.223Z,101592.26
2017-12-03T16:54:27.426Z,101590.34
2017-12-03T16:56:55.272Z,101595.63
2017-12-03T16:59:23.759Z,101592.27
2017-12-03T17:01:51.751Z,101584.59
2017-12-03T17:04:19.567Z,101580.84
2017-12-03T17:06:47.777Z,101583.80
2017-12-03T17:09:16.682Z,101578.22
2017-12-03T17:11:44.505Z,101573.22
2017-12-03T17:14:12.265Z,101586.71
2017-12-03T17:16:40.541Z,101575.89
2017-12-03T17:19:08.268Z,101579.95
2017-12-03T17:21:36.333Z,101577.42
2017-12-03T17:24:04.082Z,101583.50
2017-12-03T17:26:32.177Z,101588.25
2017-12-03T17:28:59.832Z,101587.83
2017-12-03T17:31:28.272Z,101592.35
2017-12-03T17:33:56.004Z,101587.07
2017-12-03T17:36:25.148Z,101580.53
2017-12-03T17:38:53.135Z,101587.88
2017-12-03T17:41:20.827Z,101596.02
2017-12-03T17:43:48.517Z,101588.38
2017-12-03T17:46:17.217Z,101599.31
2017-12-03T17:48:44.921Z,101587.49
2017-12-03T17:51:12.724Z,101598.97
2017-12-03T17:53:40.990Z,101587.15
2017-12-03T17:56:08.822Z,101595.03
2017-12-03T17:58:37.435Z,101595.79
2017-12-03T18:01:05.121Z,101595.71
2017-12-03T18:03:32.880Z,101597.70
2017-12-03T18:06:00.694Z,101586.90
2017-12-03T18:08:28.726Z,101584.45
2017-12-03T18:10:56.828Z,101583.09
2017-12-03T18:13:24.488Z,101577.59
2017-12-03T18:15:52.208Z,101578.85
2017-12-03T18:18:19.852Z,101579.03
2017-12-03T18:20:47.707Z,101580.65
2017-12-03T18:23:16.250Z,101583.67
2017-12-03T18:25:44.743Z,101584.81
2017-12-03T18:28:12.474Z,101588.21
2017-12-03T18:30:40.256Z,101591.00
2017-12-03T18:33:09.129Z,101609.67
2017-12-03T18:35:37.227Z,101609.92
2017-12-03T18:38:05.036Z,101599.13
2017-12-03T18:40:34.008Z,101586.96
2017-12-03T18:43:02.710Z,101583.40
2017-12-03T18:45:30.491Z,101585.50
2017-12-03T18:47:58.553Z,101595.03
2017-12-03T18:50:27.298Z,101595.45
2017-12-03T18:52:55.851Z,101598.12
2017-12-03T18:55:23.893Z,101601.48
2017-12-03T18:57:51.696Z,101607.95
2017-12-03T19:00:19.439Z,101611.94
2017-12-03T19:02:47.585Z,101615.23
2017-12-03T19:05:15.592Z,101617.99
2017-12-03T19:07:43.372Z,101623.75
2017-12-03T19:10:11.106Z,101624.23
2017-12-03T19:12:38.886Z,101622.01
2017-12-03T19:15:06.908Z,101634.33
2017-12-03T19:17:34.648Z,101636.34
2017-12-03T19:20:02.370Z,101639.44
2017-12-03T19:22:31.144Z,101630.98
2017-12-03T19:24:58.810Z,101622.28
2017-12-03T19:27:28.492Z,101632.06
2017-12-03T19:29:56.577Z,101627.11
2017-12-03T19:32:24.781Z,101631.16
2017-12-03T19:34:52.783Z,101618.98
2017-12-03T19:37:20.532Z,101616.17
2017-12-03T19:39:48.167Z,101623.40
2017-12-03T19:42:15.970Z,101627.89
2017-12-03T19:44:43.627Z,101625.28
2017-12-03T19:47:11.321Z,101617.61
2017-12-03T19:49:39.012Z,101610.71
2017-12-03T19:52:07.229Z,101612.48
2017-12-03T19:54:35.002Z,101602.26
2017-12-03T19:57:03.172Z,101597.97
2017-12-03T19:59:31.321Z,101595.90
2017-12-03T20:01:59.424Z,101610.33
2017-12-03T20:04:28.238Z,101612.52
2017-12-03T20:06:55.940Z,101613.20
2017-12-03T20:09:24.644Z,101619.26
2017-12-03T20:11:52.386Z,101618.84
2017-12-03T20:14:20.199Z,101620.37
2017-12-03T20:16:48.052Z,101615.99
2017-12-03T20:19:15.735Z,101617.34
2017-12-03T20:21:43.484Z,101621.33
2017-12-03T20:24:11.900Z,101613.20
2017-12-03T20:26:39.694Z,101624.36
2017-12-03T20:29:07.844Z,101633.62
2017-12-03T20:31:35.635Z,101639.47
2017-12-03T20:34:03.404Z,101638.81
2017-12-03T20:36:31.898Z,101635.30
2017-12-03T20:38:59.689Z,101641.33
2017-12-03T20:41:27.553Z,101642.10
2017-12-03T20:43:55.395Z,101633.87
2017-12-03T20:46:23.212Z,101633.61
2017-12-03T20:48:51.013Z,101635.11
2017-12-03T20:51:19.067Z,101645.02
2017-12-03T20:53:47.055Z,101642.49
2017-12-03T20:56:14.972Z,101642.77
2017-12-03T20:58:42.783Z,101644.83
2017-12-03T21:01:10.755Z,101633.25
2017-12-03T21:03:38.960Z,101619.28
2017-12-03T21:06:07.368Z,101617.19
2017-12-03T21:08:35.535Z,101625.02
2017-12-03T21:11:03.642Z,101623.25
2017-12-03T21:13:31.404Z,101616.20
2017-12-03T21:15:59.196Z,101623.36
2017-12-03T21:18:27.408Z,101607.92
2017-12-03T21:20:55.247Z,101606.54
2017-12-03T21:23:23.825Z,101609.69
2017-12-03T21:25:52.286Z,101603.63
2017-12-03T21:28:20.035Z,101598.26
2017-12-03T21:30:47.849Z,101596.61
2017-12-03T21:33:16.032Z,101605.16
2017-12-03T21:35:44.179Z,101603.66
2017-12-03T21:38:12.849Z,101604.34
2017-12-03T21:40:41.161Z,101606.53
2017-12-03T21:43:09.655Z,101608.88
2017-12-03T21:45:37.837Z,101608.02
2017-12-03T21:48:06.264Z,101608.55
2017-12-03T21:50:34.880Z,101611.16
2017-12-03T21:53:02.850Z,101611.25
2017-12-03T21:55:30.991Z,101616.20
2017-12-03T21:57:58.901Z,101620.79
2017-12-03T22:00:26.917Z,101614.88
2017-12-03T22:02:54.768Z,101622.73
2017-12-03T22:05:22.500Z,101628.97
2017-12-03T22:07:50.674Z,101643.48
2017-12-03T22:10:18.609Z,101646.25
2017-12-03T22:12:47.909Z,101652.19
2017-12-03T22:15:15.633Z,101656.05
2017-12-03T22:17:43.307Z,101640.03
2017-12-03T22:20:11.407Z,101645.55
2017-12-03T22:22:39.193Z,101646.40
2017-12-03T22:25:06.948Z,101643.22
2017-12-03T22:27:34.622Z,101648.05
2017-12-03T22:30:02.312Z,101645.17
2017-12-03T22:32:30.561Z,101635.62
2017-12-03T22:34:58.254Z,101628.05
2017-12-03T22:37:26.000Z,101634.13
2017-12-03T22:39:53.646Z,101636.89
2017-12-03T22:42:21.387Z,101632.18
2017-12-03T22:44:49.022Z,101638.27
2017-12-03T22:47:16.718Z,101632.30
2017-12-03T22:49:44.460Z,101634.91
2017-12-03T22:52:12.100Z,101627.02
2017-12-03T22:54:39.841Z,101624.92
2017-12-03T22:57:07.568Z,101625.73
2017-12-03T22:59:35.246Z,101626.16
2017-12-03T23:02:02.955Z,101623.25
2017-12-03T23:04:30.726Z,101625.86
2017-12-03T23:06:58.454Z,101628.73
2017-12-03T23:09:26.190Z,101623.76
2017-12-03T23:11:53.890Z,101622.59
2017-12-03T23:14:21.628Z,101620.40
2017-12-03T23:16:49.252Z,101625.50
2017-12-03T23:19:17.008Z,101622.70
2017-12-03T23:21:44.704Z,101627.12
2017-12-03T23:24:12.440Z,101625.16
2017-12-03T23:26:40.087Z,101624.39
2017-12-03T23:29:07.845Z,101621.89
2017-12-03T23:31:35.584Z,101617.22
2017-12-03T23:34:03.364Z,101620.09
2017-12-03T23:36:31.030Z,101622.31
2017-12-03T23:38:58.770Z,101615.57
2017-12-03T23:41:26.515Z,101611.61
2017-12-03T23:43:54.260Z,101611.04
2017-12-03T23:46:22.014Z,101614.67
2017-12-03T23:48:49.695Z,101615.63
2017-12-03T23:51:17.409Z,101615.50
2017-12-03T23:53:45.159Z,101613.31
2017-12-03T23:56:12.872Z,101616.22
2017-12-03T23:58:40.630Z,101605.16
